Time;durP1;ratioP1;P1;durP2;ratioP2;P2;SDS_P1;SDS_P2;PMS_P1;PMS_P2;Temp;Humidity;BMP_temperature;BMP_pressure;BME280_temperature;BME280_humidity;BME280_pressure;Samples;Min_cycle;Max_cycle;Signal;HPM_P1;HPM_P2
2023/06/27 00:00:11;;;;;;;5.13;2.05;;;15.50;99.90;;;;;;5060249;28;20480;-78
2023/06/27 00:02:38;;;;;;;7.30;1.95;;;15.40;99.90;;;;;;5043980;28;20040;-79
2023/06/27 00:05:04;;;;;;;5.45;2.20;;;15.40;99.90;;;;;;5059772;28;20044;-79
2023/06/27 00:07:30;;;;;;;3.45;2.20;;;15.40;99.90;;;;;;5041233;28;20113;-78
2023/06/27 00:09:56;;;;;;;7.18;2.13;;;15.30;99.90;;;;;;5061201;28;20491;-79
2023/06/27 00:12:22;;;;;;;4.07;2.33;;;15.20;99.90;;;;;;5060906;28;20036;-78
2023/06/27 00:14:48;;;;;;;4.70;1.80;;;15.30;99.90;;;;;;5059532;28;20059;-79
2023/06/27 00:17:16;;;;;;;3.75;1.83;;;15.20;99.90;;;;;;5058297;28;20044;-79
2023/06/27 00:19:46;;;;;;;6.50;1.83;;;15.20;99.90;;;;;;5064607;28;20049;-79
2023/06/27 00:22:11;;;;;;;5.65;2.22;;;15.20;99.90;;;;;;5051102;28;20040;-79
2023/06/27 00:24:38;;;;;;;4.85;2.28;;;15.20;99.90;;;;;;5065429;28;20289;-78
2023/06/27 00:27:07;;;;;;;5.63;2.08;;;15.20;99.90;;;;;;5034616;28;20045;-79
2023/06/27 00:29:33;;;;;;;6.57;2.45;;;15.20;99.90;;;;;;5063689;28;20057;-80
2023/06/27 00:31:59;;;;;;;6.13;1.85;;;15.20;99.90;;;;;;5065192;28;20059;-78
2023/06/27 00:34:24;;;;;;;5.35;2.38;;;15.20;99.90;;;;;;5067106;28;20701;-79
2023/06/27 00:36:50;;;;;;;6.05;1.73;;;15.20;99.90;;;;;;5065209;28;20037;-79
2023/06/27 00:39:16;;;;;;;6.95;2.00;;;15.20;99.90;;;;;;5030204;28;20025;-78
2023/06/27 00:41:42;;;;;;;6.35;1.98;;;15.20;99.90;;;;;;5047919;28;20127;-79
2023/06/27 00:44:08;;;;;;;4.65;2.20;;;15.20;99.90;;;;;;5047793;28;20037;-79
2023/06/27 00:46:38;;;;;;;6.28;2.60;;;15.20;99.90;;;;;;5046108;28;20052;-79
2023/06/27 00:49:09;;;;;;;9.20;2.03;;;15.20;99.90;;;;;;5060755;28;20032;-79
2023/06/27 00:51:35;;;;;;;8.63;2.30;;;15.20;99.90;;;;;;5064451;28;20062;-79
2023/06/27 00:54:02;;;;;;;2.70;1.65;;;15.20;99.90;;;;;;5065633;28;20105;-79
2023/06/27 00:56:28;;;;;;;5.75;2.47;;;15.20;99.90;;;;;;5065969;28;20616;-79
2023/06/27 00:58:57;;;;;;;5.53;2.30;;;15.10;99.90;;;;;;5064625;28;20079;-79
2023/06/27 01:01:23;;;;;;;6.13;1.98;;;15.10;99.90;;;;;;5033727;28;20046;-79
2023/06/27 01:03:49;;;;;;;3.30;2.20;;;15.00;99.90;;;;;;5065819;28;20048;-79
2023/06/27 01:06:24;;;;;;;3.65;1.90;;;14.90;99.90;;;;;;5050909;28;20051;-79
2023/06/27 01:09:01;;;;;;;5.10;1.98;;;14.90;99.90;;;;;;5063760;28;20589;-79
2023/06/27 01:11:47;;;;;;;6.03;2.22;;;14.90;99.90;;;;;;5050301;28;20040;-78
2023/06/27 01:14:16;;;;;;;5.18;2.22;;;14.90;99.90;;;;;;5067242;28;20060;-79
2023/06/27 01:16:45;;;;;;;6.50;1.92;;;14.90;99.90;;;;;;5067818;28;20474;-79
2023/06/27 01:19:13;;;;;;;7.53;2.22;;;14.90;99.90;;;;;;5049619;28;20186;-78
2023/06/27 01:21:40;;;;;;;5.05;2.38;;;14.90;99.90;;;;;;5051830;28;20041;-78
2023/06/27 01:24:08;;;;;;;4.47;2.60;;;14.90;99.90;;;;;;5077217;28;20086;-79
2023/06/27 01:26:35;;;;;;;4.82;2.40;;;14.80;99.90;;;;;;5072341;28;20066;-78
2023/06/27 01:29:00;;;;;;;6.03;2.13;;;14.70;99.90;;;;;;5050267;28;20043;-79
2023/06/27 01:31:41;;;;;;;3.78;2.10;;;14.70;99.90;;;;;;5074217;28;20044;-79
2023/06/27 01:34:30;;;;;;;3.95;2.08;;;14.70;99.90;;;;;;5066594;28;20043;-79
2023/06/27 01:37:26;;;;;;;4.35;2.25;;;14.70;99.90;;;;;;5065556;28;20041;-78
2023/06/27 01:40:06;;;;;;;3.95;2.13;;;14.60;99.90;;;;;;5065332;28;21696;-78
2023/06/27 01:42:42;;;;;;;5.57;2.50;;;14.70;99.90;;;;;;5067336;28;20036;-79
2023/06/27 01:45:11;;;;;;;3.10;2.10;;;14.60;99.90;;;;;;5063631;28;20056;-79
2023/06/27 01:47:41;;;;;;;5.50;2.10;;;14.60;99.90;;;;;;5048567;28;20044;-80
2023/06/27 01:50:08;;;;;;;5.43;2.45;;;14.60;99.90;;;;;;5061354;28;20055;-79
2023/06/27 01:52:38;;;;;;;6.88;1.95;;;14.50;99.90;;;;;;5048474;28;20797;-79
2023/06/27 01:55:04;;;;;;;7.40;2.78;;;14.50;99.90;;;;;;5064827;28;20467;-79
2023/06/27 01:57:30;;;;;;;6.10;2.25;;;14.50;99.90;;;;;;5046823;28;20045;-79
2023/06/27 01:59:55;;;;;;;4.78;2.08;;;14.50;99.90;;;;;;5045862;28;20063;-79
2023/06/27 02:02:21;;;;;;;3.67;1.77;;;14.50;99.90;;;;;;5046815;28;20503;-79
2023/06/27 02:04:47;;;;;;;4.18;2.30;;;14.50;99.90;;;;;;5059342;28;20075;-79
2023/06/27 02:07:13;;;;;;;5.97;2.50;;;15.50;99.90;;;;;;5058198;28;20036;-79
2023/06/27 02:09:39;;;;;;;5.88;2.10;;;14.00;99.90;;;;;;5043537;28;20055;-79
2023/06/27 02:12:05;;;;;;;4.93;2.10;;;14.40;99.90;;;;;;5043096;28;20845;-80
2023/06/27 02:14:31;;;;;;;7.10;2.35;;;14.40;99.90;;;;;;5058051;28;20032;-78
2023/06/27 02:16:57;;;;;;;4.93;2.03;;;14.40;99.90;;;;;;5059505;28;20044;-79
2023/06/27 02:19:23;;;;;;;4.28;1.80;;;14.40;99.90;;;;;;5058519;28;20037;-78
2023/06/27 02:21:49;;;;;;;2.90;2.08;;;14.40;99.90;;;;;;5066394;28;20135;-79
2023/06/27 02:24:16;;;;;;;5.13;2.15;;;14.40;99.90;;;;;;5066271;28;20032;-79
2023/06/27 02:26:43;;;;;;;2.28;1.73;;;14.40;99.90;;;;;;5045136;28;20052;-79
2023/06/27 02:29:09;;;;;;;3.75;2.42;;;14.40;99.90;;;;;;5052448;28;20037;-79
2023/06/27 02:31:35;;;;;;;6.30;2.25;;;14.50;99.90;;;;;;5047087;28;20056;-79
2023/06/27 02:34:01;;;;;;;2.92;1.85;;;14.50;99.90;;;;;;5064868;28;20045;-78
2023/06/27 02:36:27;;;;;;;6.00;1.88;;;14.40;99.90;;;;;;5066051;28;20040;-79
2023/06/27 02:38:58;;;;;;;3.95;1.65;;;14.50;99.90;;;;;;5064170;28;20127;-78
2023/06/27 02:41:24;;;;;;;5.28;2.00;;;14.50;99.90;;;;;;5048503;28;20086;-78
2023/06/27 02:43:50;;;;;;;5.45;2.30;;;14.50;99.90;;;;;;5065189;28;20159;-79
2023/06/27 02:46:16;;;;;;;3.42;2.05;;;15.20;99.90;;;;;;5065876;28;20033;-78
2023/06/27 02:48:42;;;;;;;5.88;2.17;;;14.50;99.90;;;;;;5048952;28;20037;-78
2023/06/27 02:51:08;;;;;;;4.40;1.90;;;14.50;99.90;;;;;;5066956;28;20044;-79
2023/06/27 02:53:34;;;;;;;2.55;1.80;;;15.00;99.90;;;;;;5067626;28;20047;-79
2023/06/27 02:56:02;;;;;;;4.85;2.13;;;14.30;99.90;;;;;;5065147;28;20053;-78
2023/06/27 02:58:32;;;;;;;8.23;2.40;;;14.40;99.90;;;;;;5050439;28;20051;-79
2023/06/27 03:01:06;;;;;;;8.15;2.10;;;14.40;99.90;;;;;;5052567;28;20079;-78
2023/06/27 03:03:33;;;;;;;6.47;2.72;;;14.40;99.90;;;;;;5072284;28;20119;-78
2023/06/27 03:06:08;;;;;;;2.33;2.00;;;14.40;99.90;;;;;;5068098;28;20049;-78
2023/06/27 03:08:35;;;;;;;2.25;1.58;;;14.40;99.90;;;;;;5049066;28;20048;-79
2023/06/27 03:11:01;;;;;;;6.13;2.35;;;14.40;99.90;;;;;;5063128;28;20115;-79
2023/06/27 03:13:28;;;;;;;5.32;2.22;;;14.40;99.90;;;;;;5048594;28;20123;-79
2023/06/27 03:15:53;;;;;;;3.53;2.10;;;14.40;99.90;;;;;;5045515;28;20053;-79
2023/06/27 03:18:20;;;;;;;4.65;2.05;;;14.40;99.90;;;;;;5046623;28;20539;-79
2023/06/27 03:20:46;;;;;;;7.18;2.40;;;14.40;99.90;;;;;;5060039;28;20060;-78
2023/06/27 03:23:11;;;;;;;2.67;2.00;;;14.40;99.90;;;;;;5064496;28;20052;-78
2023/06/27 03:25:37;;;;;;;3.97;2.75;;;14.40;99.90;;;;;;5044857;28;20133;-79
2023/06/27 03:28:03;;;;;;;4.18;2.25;;;14.40;99.90;;;;;;5052645;28;20040;-79
2023/06/27 03:30:29;;;;;;;5.45;2.50;;;14.40;99.90;;;;;;5069474;28;20411;-79
2023/06/27 03:32:55;;;;;;;4.80;2.53;;;14.30;99.90;;;;;;5069192;28;20060;-78
2023/06/27 03:35:20;;;;;;;4.03;2.53;;;14.30;99.90;;;;;;5067533;28;20044;-79
2023/06/27 03:37:46;;;;;;;6.10;2.47;;;14.30;99.90;;;;;;5069079;28;20040;-79
2023/06/27 03:40:12;;;;;;;5.47;2.45;;;14.20;99.90;;;;;;5069111;28;20456;-78
2023/06/27 03:42:37;;;;;;;5.97;2.50;;;14.30;99.90;;;;;;5069947;28;20506;-78
2023/06/27 03:45:04;;;;;;;6.18;2.42;;;14.30;99.90;;;;;;5049443;28;20128;-79
2023/06/27 03:47:30;;;;;;;2.92;2.25;;;14.30;99.90;;;;;;5064560;28;20518;-79
2023/06/27 03:49:55;;;;;;;4.78;2.28;;;15.60;99.90;;;;;;5066705;28;20066;-79
2023/06/27 03:52:21;;;;;;;5.75;2.20;;;14.70;99.90;;;;;;5065136;28;20045;-77
2023/06/27 03:54:47;;;;;;;4.53;2.78;;;14.30;99.90;;;;;;5068519;28;20364;-79
2023/06/27 03:57:12;;;;;;;5.07;2.53;;;14.30;99.90;;;;;;5067111;28;20040;-79
2023/06/27 03:59:38;;;;;;;7.50;2.20;;;14.30;99.90;;;;;;5066499;28;20135;-79
2023/06/27 04:02:04;;;;;;;6.47;2.40;;;14.40;99.90;;;;;;5060606;28;20407;-80
2023/06/27 04:04:30;;;;;;;5.75;2.17;;;14.40;99.90;;;;;;5057544;28;20073;-79
2023/06/27 04:06:56;;;;;;;4.45;2.08;;;14.40;99.90;;;;;;5050893;28;20043;-79
2023/06/27 04:09:21;;;;;;;6.70;3.17;;;15.30;99.90;;;;;;5034632;28;20040;-79
2023/06/27 04:11:47;;;;;;;8.20;2.70;;;14.40;99.90;;;;;;5068647;28;20435;-79
2023/06/27 04:14:17;;;;;;;6.05;2.53;;;15.70;99.90;;;;;;5066190;28;20071;-80
2023/06/27 04:16:44;;;;;;;3.28;2.75;;;14.30;99.90;;;;;;5063064;28;20449;-79
2023/06/27 04:19:09;;;;;;;9.70;3.35;;;14.30;99.90;;;;;;5052678;28;20090;-79
2023/06/27 04:21:35;;;;;;;13.90;9.68;;;14.30;99.90;;;;;;5063844;28;20044;-79
2023/06/27 04:24:05;;;;;;;6.60;3.30;;;15.50;99.90;;;;;;5067160;28;20098;-79
2023/06/27 04:26:31;;;;;;;7.13;2.72;;;14.30;99.90;;;;;;5046054;28;20040;-79
2023/06/27 04:28:59;;;;;;;8.98;2.63;;;14.30;99.90;;;;;;5066733;28;20032;-79
2023/06/27 04:31:25;;;;;;;4.75;2.85;;;14.30;99.90;;;;;;5053351;28;20099;-79
2023/06/27 04:33:55;;;;;;;5.68;2.80;;;14.30;99.90;;;;;;5066527;28;20041;-78
2023/06/27 04:36:24;;;;;;;9.20;2.72;;;14.30;99.90;;;;;;5050734;28;20052;-80
2023/06/27 04:38:50;;;;;;;5.00;2.22;;;14.30;99.90;;;;;;5068950;28;20044;-79
2023/06/27 04:41:16;;;;;;;6.53;3.88;;;14.30;99.90;;;;;;5061286;28;20028;-79
2023/06/27 04:43:42;;;;;;;6.53;3.03;;;14.40;99.90;;;;;;5073127;28;20063;-80
2023/06/27 04:46:08;;;;;;;5.97;2.90;;;14.40;99.90;;;;;;5072134;28;20174;-81
2023/06/27 04:48:34;;;;;;;4.72;2.55;;;14.40;99.90;;;;;;5068452;28;20039;-80
2023/06/27 04:50:59;;;;;;;5.43;2.42;;;14.40;99.90;;;;;;5069602;28;20503;-79
2023/06/27 04:53:25;;;;;;;5.68;2.40;;;14.50;99.90;;;;;;5068525;28;20045;-80
2023/06/27 04:55:53;;;;;;;6.70;2.72;;;14.50;99.90;;;;;;5067939;28;20040;-80
2023/06/27 04:58:19;;;;;;;6.38;2.78;;;14.50;99.90;;;;;;5052126;28;20830;-81
2023/06/27 05:00:49;;;;;;;11.93;3.20;;;14.60;99.90;;;;;;5046822;28;20081;-80
2023/06/27 05:03:15;;;;;;;5.95;2.65;;;14.60;99.90;;;;;;5042672;28;20158;-81
2023/06/27 05:05:41;;;;;;;8.25;2.40;;;14.70;99.90;;;;;;5047254;28;20049;-81
2023/06/27 05:08:07;;;;;;;3.83;2.25;;;14.80;99.90;;;;;;5048386;28;20598;-79
2023/06/27 05:10:33;;;;;;;9.75;3.03;;;14.80;99.90;;;;;;5055599;28;20090;-78
2023/06/27 05:13:00;;;;;;;12.10;6.90;;;14.80;99.90;;;;;;5062512;28;20055;-79
2023/06/27 05:15:30;;;;;;;16.83;6.75;;;14.80;99.90;;;;;;5073148;28;20115;-80
2023/06/27 05:18:06;;;;;;;6.72;2.40;;;14.20;99.90;;;;;;5068412;28;20039;-80
2023/06/27 05:20:32;;;;;;;7.40;2.40;;;15.00;99.90;;;;;;5051293;28;20127;-79
2023/06/27 05:22:58;;;;;;;5.47;2.35;;;15.10;99.90;;;;;;5066823;28;20135;-80
2023/06/27 05:25:23;;;;;;;8.63;2.38;;;15.10;99.90;;;;;;5065474;28;20051;-79
2023/06/27 05:27:49;;;;;;;3.60;2.25;;;15.10;99.90;;;;;;5066815;28;20531;-80
2023/06/27 05:30:15;;;;;;;5.80;2.25;;;15.30;99.90;;;;;;5050095;28;20052;-80
2023/06/27 05:32:40;;;;;;;5.22;2.22;;;15.30;99.90;;;;;;5055708;28;20531;-80
2023/06/27 05:35:09;;;;;;;4.97;2.45;;;15.40;99.90;;;;;;5064827;28;20044;-75
2023/06/27 05:37:35;;;;;;;9.00;2.33;;;15.50;99.90;;;;;;5061355;28;20106;-76
2023/06/27 05:40:03;;;;;;;6.10;2.00;;;15.60;99.90;;;;;;5064211;28;20045;-77
2023/06/27 05:42:28;;;;;;;5.95;2.33;;;15.70;99.90;;;;;;5060647;28;20044;-77
2023/06/27 05:44:54;;;;;;;8.85;3.30;;;15.80;99.90;;;;;;5048889;28;20044;-78
2023/06/27 05:47:20;;;;;;;8.05;2.28;;;15.80;99.90;;;;;;5064663;28;20078;-78
2023/06/27 05:49:47;;;;;;;12.88;2.50;;;15.90;99.90;;;;;;5067631;28;20075;-77
2023/06/27 05:52:13;;;;;;;11.32;2.35;;;15.90;99.90;;;;;;5061114;28;20045;-77
2023/06/27 05:54:41;;;;;;;5.30;1.98;;;16.00;99.90;;;;;;5061809;28;21425;-77
2023/06/27 05:57:07;;;;;;;6.57;2.42;;;16.10;99.90;;;;;;5064318;28;20494;-79
2023/06/27 05:59:33;;;;;;;3.95;1.67;;;16.20;99.90;;;;;;5063837;28;20033;-76
2023/06/27 06:01:59;;;;;;;6.32;1.95;;;16.20;99.90;;;;;;5062521;28;20051;-78
2023/06/27 06:04:24;;;;;;;2.97;1.05;;;16.30;99.90;;;;;;5046429;28;20051;-76
2023/06/27 06:06:52;;;;;;;6.40;1.15;;;16.40;99.90;;;;;;5063842;28;20044;-76
2023/06/27 06:09:18;;;;;;;6.43;1.52;;;16.40;99.90;;;;;;5065797;28;20387;-76
2023/06/27 06:11:44;;;;;;;4.32;1.67;;;16.50;99.90;;;;;;5064615;28;20396;-75
2023/06/27 06:14:10;;;;;;;7.35;1.80;;;16.60;99.90;;;;;;5063731;28;20435;-77
2023/06/27 06:16:36;;;;;;;9.02;1.40;;;16.70;99.90;;;;;;5065048;28;20119;-76
2023/06/27 06:19:03;;;;;;;9.80;1.98;;;16.70;99.90;;;;;;5067625;28;20447;-77
2023/06/27 06:21:30;;;;;;;5.40;1.52;;;16.80;99.90;;;;;;5062410;28;20051;-77
2023/06/27 06:23:56;;;;;;;13.75;2.35;;;16.90;99.90;;;;;;5060644;28;20077;-77
2023/06/27 06:26:21;;;;;;;7.10;1.55;;;17.00;99.90;;;;;;5064694;28;20087;-77
2023/06/27 06:28:47;;;;;;;13.93;3.55;;;17.10;99.90;;;;;;5063605;28;20091;-78
2023/06/27 06:31:16;;;;;;;8.85;1.85;;;17.10;99.90;;;;;;5061989;28;20036;-80
2023/06/27 06:33:45;;;;;;;6.13;1.63;;;17.20;99.90;;;;;;5062831;28;20079;-76
2023/06/27 06:36:12;;;;;;;5.05;1.00;;;17.20;99.90;;;;;;5062452;28;20051;-75
2023/06/27 06:38:39;;;;;;;9.32;1.42;;;17.40;99.90;;;;;;5065287;28;20048;-76
2023/06/27 06:41:04;;;;;;;9.55;1.25;;;16.60;99.90;;;;;;5064770;28;20545;-75
2023/06/27 06:43:30;;;;;;;5.85;0.93;;;17.50;99.90;;;;;;5062918;28;20076;-78
2023/06/27 06:45:56;;;;;;;4.03;1.05;;;17.50;99.90;;;;;;5066130;28;20041;-76
2023/06/27 06:48:22;;;;;;;9.00;1.25;;;17.80;99.90;;;;;;5064692;28;20112;-78
2023/06/27 06:50:50;;;;;;;5.95;1.23;;;17.70;99.90;;;;;;5065604;28;20048;-77
2023/06/27 06:53:16;;;;;;;7.60;1.38;;;17.70;99.90;;;;;;5046655;28;20047;-77
2023/06/27 06:55:41;;;;;;;8.38;1.20;;;17.90;99.90;;;;;;5065425;28;20052;-77
2023/06/27 06:58:07;;;;;;;7.13;0.75;;;17.90;99.90;;;;;;5052416;28;20537;-77
2023/06/27 07:00:33;;;;;;;7.07;1.15;;;18.00;99.90;;;;;;5066479;28;20696;-75
2023/06/27 07:02:58;;;;;;;4.07;0.75;;;18.10;99.90;;;;;;5067732;28;20059;-76
2023/06/27 07:05:24;;;;;;;6.63;0.90;;;18.20;99.90;;;;;;5069155;28;20115;-77
2023/06/27 07:07:50;;;;;;;4.43;0.90;;;18.20;99.90;;;;;;5069065;28;20039;-77
2023/06/27 07:10:15;;;;;;;5.90;1.23;;;18.30;99.90;;;;;;5063986;28;20411;-78
2023/06/27 07:12:41;;;;;;;6.40;0.90;;;18.40;99.90;;;;;;5068757;28;20086;-78
2023/06/27 07:15:08;;;;;;;7.72;1.10;;;18.50;99.90;;;;;;5071604;28;20041;-77
2023/06/27 07:17:34;;;;;;;6.22;1.33;;;18.50;99.90;;;;;;5068847;28;20037;-76
2023/06/27 07:20:01;;;;;;;4.25;0.57;;;18.60;99.90;;;;;;5064020;28;20047;-77
2023/06/27 07:22:27;;;;;;;5.93;1.13;;;18.60;99.90;;;;;;5062769;28;20036;-77
2023/06/27 07:24:52;;;;;;;3.85;1.42;;;18.70;99.90;;;;;;5070490;28;20062;-77
2023/06/27 07:27:18;;;;;;;6.25;1.38;;;18.70;99.90;;;;;;5048942;28;20160;-77
2023/06/27 07:29:44;;;;;;;4.80;0.85;;;18.70;99.90;;;;;;5070742;28;20049;-77
2023/06/27 07:32:11;;;;;;;2.40;0.68;;;18.60;99.90;;;;;;5069872;28;20044;-78
2023/06/27 07:34:37;;;;;;;6.20;0.80;;;18.60;99.90;;;;;;5070417;28;20057;-77
2023/06/27 07:37:03;;;;;;;5.88;1.02;;;18.70;99.90;;;;;;5069597;28;20048;-77
2023/06/27 07:39:29;;;;;;;3.97;0.60;;;18.80;99.90;;;;;;5069785;28;20029;-77
2023/06/27 07:41:54;;;;;;;5.43;0.95;;;18.90;99.90;;;;;;5070069;28;20040;-76
2023/06/27 07:44:20;;;;;;;4.75;0.85;;;18.90;99.90;;;;;;5066140;28;20033;-77
2023/06/27 07:46:46;;;;;;;10.50;0.63;;;19.10;99.90;;;;;;5067403;28;20048;-79
2023/06/27 07:49:11;;;;;;;4.10;0.75;;;19.10;99.90;;;;;;5053630;28;20112;-77
2023/06/27 07:51:37;;;;;;;4.93;0.88;;;19.10;99.90;;;;;;5072156;28;20052;-75
2023/06/27 07:54:03;;;;;;;4.90;0.80;;;19.20;99.90;;;;;;5083275;28;20032;-76
2023/06/27 07:56:29;;;;;;;3.17;0.60;;;19.20;99.90;;;;;;5065360;28;20447;-76
2023/06/27 07:58:55;;;;;;;4.00;1.52;;;19.30;99.90;;;;;;5069879;28;20044;-76
2023/06/27 08:01:21;;;;;;;4.47;1.13;;;19.30;99.90;;;;;;5069582;28;20539;-79
2023/06/27 08:03:47;;;;;;;8.23;1.00;;;19.40;99.90;;;;;;5052569;28;20046;-80
2023/06/27 08:06:14;;;;;;;7.40;0.93;;;19.30;99.90;;;;;;5052195;28;20486;-78
2023/06/27 08:08:40;;;;;;;3.78;0.60;;;19.30;99.90;;;;;;5053332;28;20083;-79
2023/06/27 08:11:06;;;;;;;3.58;0.65;;;19.30;99.90;;;;;;5052727;28;20719;-82
2023/06/27 08:13:31;;;;;;;5.43;1.00;;;19.30;99.90;;;;;;5067400;28;20045;-79
2023/06/27 08:15:57;;;;;;;7.32;1.60;;;19.40;99.90;;;;;;5069725;28;20374;-79
2023/06/27 08:18:23;;;;;;;5.05;0.98;;;19.50;99.90;;;;;;5052322;28;20044;-79
2023/06/27 08:20:49;;;;;;;8.00;1.17;;;19.50;99.90;;;;;;5068819;28;20045;-80
2023/06/27 08:23:14;;;;;;;6.38;0.88;;;19.50;99.90;;;;;;5068912;28;20040;-80
2023/06/27 08:25:40;;;;;;;4.43;2.55;;;19.40;99.90;;;;;;5069565;28;20038;-79
2023/06/27 08:28:06;;;;;;;8.10;1.13;;;19.50;99.90;;;;;;5051771;28;20094;-80
2023/06/27 08:30:31;;;;;;;5.78;1.15;;;19.30;99.90;;;;;;5070328;28;20040;-82
2023/06/27 08:32:57;;;;;;;7.70;0.93;;;19.20;99.90;;;;;;5068726;28;20174;-79
2023/06/27 08:35:23;;;;;;;3.72;0.68;;;19.20;99.90;;;;;;5068963;28;20577;-78
2023/06/27 08:37:49;;;;;;;3.38;0.77;;;19.20;99.90;;;;;;5069621;28;20041;-78
2023/06/27 08:40:25;;;;;;;6.13;1.02;;;19.30;99.90;;;;;;5069659;28;20162;-80
2023/06/27 08:42:51;;;;;;;5.53;0.80;;;19.40;99.90;;;;;;5052966;28;20044;-78
2023/06/27 08:45:17;;;;;;;2.47;0.65;;;19.50;99.90;;;;;;5052013;28;20598;-79
2023/06/27 08:47:45;;;;;;;4.32;0.95;;;19.50;99.90;;;;;;5052198;28;20076;-80
2023/06/27 08:50:15;;;;;;;2.45;0.60;;;19.60;99.80;;;;;;5069334;28;20517;-80
2023/06/27 08:52:47;;;;;;;2.92;0.68;;;19.70;99.90;;;;;;5052483;28;20052;-78
2023/06/27 08:55:48;;;;;;;5.28;0.73;;;19.80;99.60;;;;;;5051224;28;20404;-80
2023/06/27 08:58:15;;;;;;;9.27;1.13;;;19.80;99.60;;;;;;5070368;28;20047;-79
2023/06/27 09:00:44;;;;;;;8.20;1.33;;;19.70;99.50;;;;;;5070624;28;20033;-78
2023/06/27 09:03:11;;;;;;;2.75;0.65;;;19.70;99.80;;;;;;5067905;28;20044;-79
2023/06/27 09:05:37;;;;;;;8.85;1.42;;;19.70;99.90;;;;;;5052325;28;20044;-80
2023/06/27 09:08:03;;;;;;;7.85;1.23;;;19.60;99.90;;;;;;5068277;28;20040;-79
2023/06/27 09:10:29;;;;;;;4.25;0.63;;;19.60;99.80;;;;;;5063791;28;20041;-79
2023/06/27 09:12:56;;;;;;;3.20;0.55;;;19.70;99.60;;;;;;5067305;28;20079;-79
2023/06/27 09:15:22;;;;;;;5.45;0.90;;;19.80;99.30;;;;;;5069041;28;20044;-79
2023/06/27 09:17:48;;;;;;;4.07;1.13;;;19.80;99.50;;;;;;5053071;28;20127;-80
2023/06/27 09:20:18;;;;;;;5.80;0.85;;;19.90;99.90;;;;;;5052189;28;20040;-80
2023/06/27 09:22:44;;;;;;;4.63;0.85;;;19.90;99.50;;;;;;5050228;28;20040;-81
2023/06/27 09:25:19;;;;;;;4.03;0.73;;;19.80;99.30;;;;;;5069059;28;20048;-80
2023/06/27 09:27:45;;;;;;;4.40;0.90;;;19.80;99.30;;;;;;5063483;28;20435;-77
2023/06/27 09:30:12;;;;;;;3.63;0.80;;;19.80;99.40;;;;;;5068942;28;20032;-79
2023/06/27 09:32:58;;;;;;;2.25;0.65;;;20.00;99.30;;;;;;5075038;28;20071;-79
2023/06/27 09:35:26;;;;;;;4.80;0.85;;;20.00;98.50;;;;;;5063535;28;20086;-78
2023/06/27 09:37:52;;;;;;;5.40;2.13;;;20.00;98.50;;;;;;5046302;28;20102;-75
2023/06/27 09:40:24;;;;;;;3.20;1.17;;;20.10;98.30;;;;;;5047222;28;20559;-79
2023/06/27 09:42:51;;;;;;;4.25;0.80;;;20.10;98.20;;;;;;5058390;28;20041;-79
2023/06/27 09:45:18;;;;;;;3.17;0.50;;;20.10;98.10;;;;;;5047384;28;20315;-80
2023/06/27 09:47:45;;;;;;;6.75;0.80;;;20.10;98.10;;;;;;5045662;28;20045;-78
2023/06/27 09:50:11;;;;;;;5.25;1.13;;;20.20;98.10;;;;;;5050274;28;20033;-80
2023/06/27 09:52:37;;;;;;;4.03;0.70;;;20.20;98.30;;;;;;5073382;28;20051;-80
2023/06/27 09:55:03;;;;;;;5.75;1.13;;;20.30;98.50;;;;;;5051775;28;20127;-78
2023/06/27 09:57:33;;;;;;;5.60;0.70;;;20.30;98.30;;;;;;5066356;28;20155;-79
2023/06/27 09:59:59;;;;;;;7.22;1.00;;;20.40;98.40;;;;;;5049449;28;20055;-79
2023/06/27 10:02:31;;;;;;;3.78;0.63;;;20.40;98.50;;;;;;5066518;28;20036;-79
2023/06/27 10:04:58;;;;;;;3.35;0.93;;;20.40;98.20;;;;;;5067250;28;20117;-78
2023/06/27 10:07:24;;;;;;;6.90;1.25;;;20.40;98.10;;;;;;5068017;28;20088;-79
2023/06/27 10:09:50;;;;;;;4.88;0.52;;;20.30;97.90;;;;;;5047874;28;20056;-79
2023/06/27 10:12:16;;;;;;;5.75;1.00;;;20.30;97.50;;;;;;5046254;28;20121;-79
2023/06/27 10:14:46;;;;;;;1.58;0.47;;;20.30;97.10;;;;;;5052602;28;20032;-81
2023/06/27 10:17:18;;;;;;;2.70;0.50;;;20.30;97.50;;;;;;5050084;28;20056;-78
2023/06/27 10:19:44;;;;;;;5.25;1.05;;;20.30;97.90;;;;;;5069450;28;20487;-80
2023/06/27 10:22:14;;;;;;;7.88;0.70;;;20.30;97.60;;;;;;5068523;28;20076;-80
2023/06/27 10:24:42;;;;;;;2.97;1.00;;;20.30;97.00;;;;;;5071460;28;20055;-83
2023/06/27 10:27:09;;;;;;;5.25;0.80;;;20.30;96.90;;;;;;5054098;28;20163;-80
2023/06/27 10:29:41;;;;;;;3.42;0.88;;;20.30;97.10;;;;;;5069981;28;20066;-81
2023/06/27 10:32:09;;;;;;;4.57;1.20;;;20.30;97.30;;;;;;5067211;28;20057;-79
2023/06/27 10:34:42;;;;;;;7.70;0.82;;;20.40;97.60;;;;;;5061771;28;20127;-79
2023/06/27 10:37:20;;;;;;;3.17;0.70;;;20.50;97.40;;;;;;5054507;28;20048;-81
2023/06/27 10:40:06;;;;;;;4.72;0.70;;;20.70;97.20;;;;;;5067121;28;20045;-83
2023/06/27 10:42:33;;;;;;;3.20;0.80;;;20.40;96.90;;;;;;5075565;28;20036;-83
2023/06/27 10:45:09;;;;;;;3.33;0.82;;;20.60;96.90;;;;;;5034406;28;20511;-80
2023/06/27 10:47:41;;;;;;;5.38;0.57;;;20.60;96.90;;;;;;5046568;28;20033;-82
2023/06/27 10:50:12;;;;;;;5.28;0.88;;;20.60;96.90;;;;;;5054465;28;20037;-82
2023/06/27 10:52:38;;;;;;;5.47;1.17;;;20.60;97.10;;;;;;5057007;28;20372;-82
2023/06/27 10:55:19;;;;;;;4.13;0.85;;;20.80;97.20;;;;;;5071182;28;20093;-81
2023/06/27 10:57:50;;;;;;;2.50;0.82;;;20.70;97.20;;;;;;5046489;28;20052;-85
2023/06/27 11:00:32;;;;;;;5.85;1.27;;;20.80;97.00;;;;;;5055069;28;20048;-81
2023/06/27 11:03:03;;;;;;;6.75;0.90;;;20.80;96.80;;;;;;5048687;28;20048;-82
2023/06/27 11:05:45;;;;;;;5.78;0.85;;;20.80;96.80;;;;;;5070640;28;20057;-82
2023/06/27 11:08:14;;;;;;;5.95;0.65;;;20.70;96.70;;;;;;5058804;28;20079;-81
2023/06/27 11:10:52;;;;;;;5.00;0.90;;;21.20;97.00;;;;;;5055807;28;20037;-82
2023/06/27 11:13:25;;;;;;;2.88;0.85;;;20.70;97.20;;;;;;5060482;28;20556;-82
2023/06/27 11:15:54;;;;;;;5.60;0.73;;;20.80;97.40;;;;;;5071121;28;20056;-81
2023/06/27 11:18:22;;;;;;;5.68;0.70;;;21.00;97.10;;;;;;5058968;28;20464;-81
2023/06/27 11:20:49;;;;;;;6.07;0.50;;;21.10;96.80;;;;;;5055107;28;20127;-81
2023/06/27 11:23:16;;;;;;;3.92;0.68;;;20.20;96.20;;;;;;5053188;28;20045;-80
2023/06/27 11:25:44;;;;;;;6.38;0.93;;;21.00;95.80;;;;;;5045679;28;20074;-80
2023/06/27 11:28:11;;;;;;;4.82;0.90;;;21.00;95.90;;;;;;5070327;28;20123;-81
2023/06/27 11:30:37;;;;;;;2.15;0.70;;;21.00;95.90;;;;;;5053512;28;20072;-80
2023/06/27 11:33:03;;;;;;;4.45;1.00;;;21.00;96.20;;;;;;5052561;28;20051;-80
2023/06/27 11:35:31;;;;;;;5.78;0.63;;;21.00;96.40;;;;;;5054473;28;20040;-82
2023/06/27 11:37:57;;;;;;;4.03;0.80;;;21.10;96.30;;;;;;5071422;28;20484;-82
2023/06/27 11:40:27;;;;;;;3.70;0.77;;;21.00;96.40;;;;;;5051326;28;20198;-81
2023/06/27 11:42:59;;;;;;;4.63;0.70;;;21.00;95.60;;;;;;5049364;28;20051;-81
2023/06/27 11:45:26;;;;;;;5.93;0.70;;;21.00;95.60;;;;;;5050895;28;20052;-82
2023/06/27 11:47:53;;;;;;;4.18;0.45;;;21.20;95.00;;;;;;5069240;28;20072;-80
2023/06/27 11:50:19;;;;;;;6.60;0.85;;;21.00;95.00;;;;;;5050625;28;20477;-81
2023/06/27 11:52:47;;;;;;;3.42;0.75;;;21.00;95.40;;;;;;5069249;28;20054;-84
2023/06/27 11:55:13;;;;;;;3.58;0.45;;;20.80;95.80;;;;;;5069076;28;20114;-81
2023/06/27 11:57:46;;;;;;;6.35;0.88;;;20.80;96.10;;;;;;5052939;28;20166;-82
2023/06/27 12:00:24;;;;;;;6.23;0.70;;;20.90;96.50;;;;;;5048443;28;20040;-80
2023/06/27 12:02:51;;;;;;;4.97;0.88;;;20.90;96.10;;;;;;5062462;28;20044;-79
2023/06/27 12:05:17;;;;;;;3.50;0.50;;;20.90;96.40;;;;;;5066583;28;20045;-82
2023/06/27 12:07:57;;;;;;;3.42;0.70;;;20.80;96.10;;;;;;5063040;28;20093;-81
2023/06/27 12:10:22;;;;;;;5.65;1.25;;;20.80;96.40;;;;;;5069742;28;20067;-81
2023/06/27 12:12:52;;;;;;;4.18;0.80;;;20.90;96.50;;;;;;5052063;28;20415;-82
2023/06/27 12:15:18;;;;;;;3.13;0.93;;;20.90;96.60;;;;;;5069082;28;20040;-82
2023/06/27 12:17:57;;;;;;;7.60;1.70;;;20.90;96.70;;;;;;5069024;28;20101;-82
2023/06/27 12:20:23;;;;;;;4.45;0.98;;;21.00;96.50;;;;;;5053136;28;20039;-82
2023/06/27 12:22:49;;;;;;;2.70;0.80;;;21.00;96.60;;;;;;5052093;28;20084;-84
2023/06/27 12:25:15;;;;;;;3.97;0.82;;;21.00;95.30;;;;;;5052249;28;20141;-82
2023/06/27 12:27:40;;;;;;;3.08;0.50;;;20.90;94.80;;;;;;5067384;28;20507;-78
2023/06/27 12:30:10;;;;;;;5.25;0.52;;;20.90;94.50;;;;;;5067797;28;20036;-79
2023/06/27 12:32:36;;;;;;;4.82;0.90;;;20.80;94.70;;;;;;5051251;28;20056;-79
2023/06/27 12:35:02;;;;;;;3.67;0.88;;;20.90;94.60;;;;;;5068380;28;20052;-78
2023/06/27 12:37:33;;;;;;;6.25;1.85;;;20.80;94.40;;;;;;5068347;28;20555;-79
2023/06/27 12:39:58;;;;;;;3.45;0.88;;;20.80;94.20;;;;;;5069197;28;20036;-79
2023/06/27 12:42:24;;;;;;;4.93;0.70;;;20.80;93.90;;;;;;5056006;28;20061;-79
2023/06/27 12:44:54;;;;;;;2.60;0.98;;;20.80;94.00;;;;;;5077039;28;20506;-85
2023/06/27 12:47:20;;;;;;;2.47;0.50;;;20.70;94.10;;;;;;5062815;28;20055;-81